createdAt,value
2018-01-10T00:01:18.480Z,37.83
2018-01-10T00:03:47.777Z,42.63
2018-01-10T00:06:17.021Z,39.47
2018-01-10T00:08:45.356Z,38.67
2018-01-10T00:11:13.769Z,40.20
2018-01-10T00:13:42.115Z,37.23
2018-01-10T00:16:10.499Z,39.40
2018-01-10T00:18:39.640Z,38.77
2018-01-10T00:21:08.551Z,40.00
2018-01-10T00:23:36.899Z,34.90
2018-01-10T00:26:05.244Z,33.63
2018-01-10T00:28:33.608Z,32.90
2018-01-10T00:31:02.730Z,34.07
2018-01-10T00:33:31.134Z,35.77
2018-01-10T00:35:59.506Z,31.83
2018-01-10T00:38:27.834Z,32.40
2018-01-10T00:40:57.237Z,33.83
2018-01-10T00:43:25.568Z,33.00
2018-01-10T00:45:53.943Z,36.07
2018-01-10T00:48:22.291Z,33.73
2018-01-10T00:50:50.645Z,32.47
2018-01-10T00:53:19.013Z,42.43
2018-01-10T00:55:47.354Z,39.57
2018-01-10T00:58:15.728Z,36.63
2018-01-10T01:00:44.113Z,32.37
2018-01-10T01:03:12.484Z,34.20
2018-01-10T01:05:40.860Z,35.13
2018-01-10T01:08:09.241Z,38.77
2018-01-10T01:10:37.609Z,35.30
2018-01-10T01:13:06.704Z,37.10
2018-01-10T01:15:35.070Z,37.43
2018-01-10T01:18:04.191Z,36.73
2018-01-10T01:20:32.587Z,38.87
2018-01-10T01:23:00.936Z,38.50
2018-01-10T01:25:29.342Z,39.30
2018-01-10T01:27:57.721Z,39.67
2018-01-10T01:30:26.060Z,34.93
2018-01-10T01:32:55.385Z,33.37
2018-01-10T01:35:23.731Z,36.13
2018-01-10T01:37:52.068Z,33.13
2018-01-10T01:40:20.441Z,38.67
2018-01-10T01:42:48.789Z,35.77
2018-01-10T01:45:17.156Z,37.00
2018-01-10T01:47:45.508Z,39.00
2018-01-10T01:50:13.859Z,35.73
2018-01-10T01:52:42.203Z,34.40
2018-01-10T01:55:11.334Z,38.23
2018-01-10T01:57:39.691Z,36.50
2018-01-10T02:00:08.052Z,34.13
2018-01-10T02:02:37.172Z,38.13
2018-01-10T02:05:05.512Z,36.60
2018-01-10T02:07:34.658Z,33.40
2018-01-10T02:10:03.020Z,33.43
2018-01-10T02:12:31.366Z,31.77
2018-01-10T02:15:00.482Z,36.10
2018-01-10T02:17:28.884Z,32.00
2018-01-10T02:19:57.236Z,42.67
2018-01-10T02:22:25.579Z,43.50
2018-01-10T02:24:53.932Z,39.53
2018-01-10T02:27:22.307Z,33.93
2018-01-10T02:29:50.833Z,34.67
2018-01-10T02:32:19.263Z,31.80
2018-01-10T02:34:47.643Z,34.83
2018-01-10T02:37:15.996Z,30.87
2018-01-10T02:39:44.341Z,31.37
2018-01-10T02:42:24.662Z,34.00
2018-01-10T02:44:53.004Z,33.67
2018-01-10T02:47:22.137Z,29.83
2018-01-10T02:49:50.497Z,34.10
2018-01-10T02:52:18.891Z,28.90
2018-01-10T02:54:47.242Z,37.37
2018-01-10T02:57:15.592Z,38.23
2018-01-10T02:59:44.031Z,30.17
2018-01-10T03:02:12.359Z,38.77
2018-01-10T03:04:40.737Z,32.00
2018-01-10T03:07:09.441Z,34.83
2018-01-10T03:09:38.566Z,37.47
2018-01-10T03:12:06.916Z,34.67
2018-01-10T03:14:35.256Z,36.83
2018-01-10T03:17:04.077Z,36.53
2018-01-10T03:19:33.166Z,37.30
2018-01-10T03:22:02.306Z,39.43
2018-01-10T03:24:30.663Z,38.93
2018-01-10T03:26:59.154Z,37.27
2018-01-10T03:29:27.500Z,33.57
2018-01-10T03:31:55.837Z,33.90
2018-01-10T03:34:24.195Z,32.97
2018-01-10T03:36:52.563Z,37.47
2018-01-10T03:39:21.692Z,32.33
2018-01-10T03:41:50.161Z,35.13
2018-01-10T03:44:18.553Z,32.43
2018-01-10T03:46:46.924Z,33.13
2018-01-10T03:49:15.268Z,30.07
2018-01-10T03:51:44.408Z,32.67
2018-01-10T03:54:13.702Z,34.27
2018-01-10T03:56:42.051Z,32.10
2018-01-10T03:59:10.399Z,32.40
2018-01-10T04:01:38.742Z,31.17
2018-01-10T04:04:07.084Z,30.93
2018-01-10T04:06:36.193Z,30.17
2018-01-10T04:09:04.561Z,29.77
2018-01-10T04:11:33.656Z,30.47
2018-01-10T04:14:02.796Z,29.30
2018-01-10T04:16:31.328Z,31.47
2018-01-10T04:19:00.446Z,31.80
2018-01-10T04:21:28.809Z,29.20
2018-01-10T04:23:57.903Z,32.17
2018-01-10T04:26:27.012Z,30.10
2018-01-10T04:28:55.365Z,29.17
2018-01-10T04:31:23.740Z,29.17
2018-01-10T04:33:52.197Z,30.47
2018-01-10T04:36:20.520Z,29.00
2018-01-10T04:38:49.655Z,27.27
2018-01-10T04:41:18.000Z,30.07
2018-01-10T04:43:47.128Z,29.70
2018-01-10T04:46:15.548Z,25.10
2018-01-10T04:48:43.902Z,25.73
2018-01-10T04:51:12.239Z,28.27
2018-01-10T04:53:40.730Z,26.93
2018-01-10T04:56:09.839Z,28.80
2018-01-10T04:58:38.166Z,29.83
2018-01-10T05:01:06.612Z,27.40
2018-01-10T05:03:35.006Z,27.73
2018-01-10T05:06:03.390Z,28.50
2018-01-10T05:08:31.739Z,29.97
2018-01-10T05:11:00.077Z,28.67
2018-01-10T05:13:29.207Z,27.90
2018-01-10T05:15:57.556Z,28.43
2018-01-10T05:18:25.981Z,27.13
2018-01-10T05:20:54.333Z,30.27
2018-01-10T05:23:22.693Z,31.70
2018-01-10T05:25:51.829Z,28.63
2018-01-10T05:28:20.165Z,27.63
2018-01-10T05:30:49.271Z,26.83
2018-01-10T05:33:17.615Z,26.37
2018-01-10T05:35:45.955Z,33.40
2018-01-10T05:38:14.426Z,32.73
2018-01-10T05:40:42.827Z,29.27
2018-01-10T05:43:11.179Z,28.90
2018-01-10T05:45:39.526Z,26.83
2018-01-10T05:48:07.896Z,31.50
2018-01-10T05:50:36.231Z,31.47
2018-01-10T05:53:04.628Z,29.20
2018-01-10T05:55:32.935Z,26.57
2018-01-10T05:58:01.380Z,27.23
2018-01-10T06:00:29.813Z,29.70
2018-01-10T06:02:58.167Z,28.80
2018-01-10T06:05:26.601Z,29.13
2018-01-10T06:07:55.691Z,29.70
2018-01-10T06:10:24.073Z,24.77
2018-01-10T06:12:52.452Z,26.30
2018-01-10T06:15:20.813Z,26.93
2018-01-10T06:17:49.943Z,26.97
2018-01-10T06:20:18.945Z,31.20
2018-01-10T06:22:47.279Z,27.77
2018-01-10T06:25:15.738Z,32.73
2018-01-10T06:27:44.092Z,26.20
2018-01-10T06:30:12.437Z,27.37
2018-01-10T06:32:40.959Z,28.87
2018-01-10T06:35:10.123Z,25.63
2018-01-10T06:37:38.569Z,28.47
2018-01-10T06:40:06.978Z,25.47
2018-01-10T06:42:35.668Z,25.50
2018-01-10T06:45:04.062Z,24.43
2018-01-10T06:47:32.405Z,25.47
2018-01-10T06:50:01.008Z,25.57
2018-01-10T06:52:29.356Z,26.13
2018-01-10T06:54:57.720Z,28.77
2018-01-10T06:57:26.054Z,28.67
2018-01-10T06:59:54.460Z,27.67
2018-01-10T07:02:22.904Z,25.87
2018-01-10T07:04:52.004Z,31.97
2018-01-10T07:07:20.394Z,30.30
2018-01-10T07:09:48.782Z,30.40
2018-01-10T07:12:17.109Z,32.10
2018-01-10T07:14:46.232Z,29.33
2018-01-10T07:17:14.578Z,30.03
2018-01-10T07:19:43.712Z,31.93
2018-01-10T07:22:12.036Z,31.17
2018-01-10T07:24:40.386Z,31.73
2018-01-10T07:27:08.756Z,30.10
2018-01-10T07:29:37.128Z,32.37
2018-01-10T07:32:06.251Z,30.23
2018-01-10T07:34:34.598Z,28.17
2018-01-10T07:37:02.993Z,29.13
2018-01-10T07:39:31.475Z,29.70
2018-01-10T07:41:59.866Z,30.27
2018-01-10T07:44:28.303Z,27.37
2018-01-10T07:46:56.633Z,28.13
2018-01-10T07:49:25.041Z,27.20
2018-01-10T07:51:53.398Z,32.43
2018-01-10T07:54:21.794Z,28.10
2018-01-10T07:56:50.137Z,28.57
2018-01-10T07:59:18.622Z,27.57
2018-01-10T08:01:46.966Z,28.80
2018-01-10T08:04:15.373Z,27.87
2018-01-10T08:06:43.715Z,25.27
2018-01-10T08:09:12.948Z,26.00
2018-01-10T08:11:41.427Z,27.30
2018-01-10T08:14:09.764Z,29.27
2018-01-10T08:16:38.949Z,27.43
2018-01-10T08:19:07.292Z,27.00
2018-01-10T08:21:35.632Z,22.73
2018-01-10T08:24:04.755Z,26.23
2018-01-10T08:26:33.127Z,25.90
2018-01-10T08:29:01.507Z,27.63
2018-01-10T08:31:29.899Z,25.27
2018-01-10T08:33:58.414Z,27.00
2018-01-10T08:36:26.772Z,24.87
2018-01-10T08:38:55.118Z,26.30
2018-01-10T08:41:23.473Z,26.10
2018-01-10T08:43:52.696Z,26.30
2018-01-10T08:46:21.091Z,24.97
2018-01-10T08:48:49.587Z,23.47
2018-01-10T08:51:17.976Z,25.87
2018-01-10T08:53:46.320Z,29.13
2018-01-10T08:56:14.833Z,24.90
2018-01-10T08:58:43.159Z,29.60
2018-01-10T09:01:12.294Z,27.17
2018-01-10T09:03:40.631Z,26.83
2018-01-10T09:06:09.752Z,24.80
2018-01-10T09:08:38.249Z,22.53
2018-01-10T09:11:06.596Z,23.90
2018-01-10T09:13:35.703Z,26.30
2018-01-10T09:16:04.069Z,23.20
2018-01-10T09:18:33.185Z,21.77
2018-01-10T09:21:01.539Z,25.87
2018-01-10T09:23:30.673Z,24.83
2018-01-10T09:25:59.046Z,25.03
2018-01-10T09:28:27.405Z,25.53
2018-01-10T09:30:56.541Z,27.33
2018-01-10T09:33:24.868Z,25.07
2018-01-10T09:35:54.007Z,25.00
2018-01-10T09:38:22.442Z,23.67
2018-01-10T09:40:51.551Z,23.37
2018-01-10T09:43:20.757Z,24.53
2018-01-10T09:45:49.087Z,21.67
2018-01-10T09:48:17.444Z,23.50
2018-01-10T09:50:45.809Z,23.70
2018-01-10T09:53:14.184Z,22.00
2018-01-10T09:55:42.573Z,24.87
2018-01-10T09:58:10.914Z,22.67
2018-01-10T10:00:39.257Z,24.70
2018-01-10T10:03:07.591Z,24.33
2018-01-10T10:05:35.983Z,26.13
2018-01-10T10:08:04.316Z,22.67
2018-01-10T10:10:32.673Z,26.90
2018-01-10T10:13:01.147Z,21.53
2018-01-10T10:15:29.521Z,22.30
2018-01-10T10:17:57.879Z,22.90
2018-01-10T10:20:26.219Z,23.10
2018-01-10T10:22:55.335Z,24.07
2018-01-10T10:25:24.460Z,22.30
2018-01-10T10:27:52.806Z,22.17
2018-01-10T10:30:21.937Z,25.27
2018-01-10T10:32:50.312Z,22.60
2018-01-10T10:35:18.672Z,21.87
2018-01-10T10:37:47.004Z,22.23
2018-01-10T10:40:15.477Z,21.30
2018-01-10T10:42:43.823Z,21.27
2018-01-10T10:45:12.193Z,20.40
2018-01-10T10:47:40.530Z,20.07
2018-01-10T10:50:09.450Z,20.43
2018-01-10T10:52:37.788Z,18.00
2018-01-10T10:55:06.224Z,19.37
2018-01-10T10:57:35.304Z,20.83
2018-01-10T11:00:04.441Z,19.10
2018-01-10T11:02:32.999Z,18.77
2018-01-10T11:05:01.329Z,19.17
2018-01-10T11:07:29.683Z,18.43
2018-01-10T11:09:58.030Z,17.33
2018-01-10T11:12:26.391Z,17.07
2018-01-10T11:14:55.524Z,16.53
2018-01-10T11:17:24.064Z,18.07
2018-01-10T11:19:52.486Z,17.00
2018-01-10T11:22:20.815Z,18.80
2018-01-10T11:24:49.235Z,18.23
2018-01-10T11:27:17.578Z,18.00
2018-01-10T11:29:45.929Z,15.60
2018-01-10T11:32:14.275Z,16.97
2018-01-10T11:34:42.669Z,15.57
2018-01-10T11:37:11.770Z,14.57
2018-01-10T11:39:40.155Z,14.10
2018-01-10T11:42:08.652Z,18.20
2018-01-10T11:44:37.000Z,16.77
2018-01-10T11:47:05.367Z,15.27
2018-01-10T11:49:33.834Z,15.00
2018-01-10T11:52:02.184Z,15.87
2018-01-10T11:54:30.542Z,13.50
2018-01-10T11:56:58.881Z,14.60
2018-01-10T11:59:27.226Z,13.83
2018-01-10T12:01:56.298Z,15.23
2018-01-10T12:04:24.653Z,14.93
2018-01-10T12:06:53.037Z,13.83
2018-01-10T12:09:21.414Z,13.90
2018-01-10T12:11:50.125Z,15.67
2018-01-10T12:14:18.477Z,18.30
2018-01-10T12:16:47.606Z,15.70
2018-01-10T12:19:15.953Z,14.17
2018-01-10T12:21:44.335Z,15.13
2018-01-10T12:24:12.745Z,15.53
2018-01-10T12:26:41.184Z,16.07
2018-01-10T12:29:09.543Z,21.67
2018-01-10T12:31:38.659Z,29.47
2018-01-10T12:34:07.018Z,15.23
2018-01-10T12:36:35.362Z,13.77
2018-01-10T12:39:03.718Z,12.23
2018-01-10T12:41:32.078Z,13.47
2018-01-10T12:44:00.458Z,14.93
2018-01-10T12:46:28.828Z,12.53
2018-01-10T12:48:57.240Z,12.50
2018-01-10T12:51:25.588Z,12.80
2018-01-10T12:53:53.931Z,15.30
2018-01-10T12:56:23.132Z,15.87
2018-01-10T12:58:52.356Z,15.60
2018-01-10T13:01:20.728Z,14.13
2018-01-10T13:03:49.068Z,15.37
2018-01-10T13:06:17.469Z,11.97
2018-01-10T13:08:45.819Z,14.27
2018-01-10T13:11:14.218Z,12.57
2018-01-10T13:13:42.587Z,13.23
2018-01-10T13:16:10.926Z,15.50
2018-01-10T13:18:39.301Z,12.17
2018-01-10T13:21:07.647Z,11.97
2018-01-10T13:23:36.739Z,14.20
2018-01-10T13:26:05.895Z,12.80
2018-01-10T13:28:34.263Z,14.17
2018-01-10T13:31:02.587Z,12.40
2018-01-10T13:33:31.717Z,12.37
2018-01-10T13:36:00.123Z,15.57
2018-01-10T13:38:28.409Z,14.63
2018-01-10T13:40:56.786Z,14.53
2018-01-10T13:43:25.089Z,13.57
2018-01-10T13:45:53.471Z,13.83
2018-01-10T13:48:21.917Z,13.17
2018-01-10T13:50:50.272Z,13.17
2018-01-10T13:53:18.614Z,14.23
2018-01-10T13:55:46.979Z,13.07
2018-01-10T13:58:15.299Z,12.50
2018-01-10T14:00:43.645Z,11.40
2018-01-10T14:03:11.998Z,13.80
2018-01-10T14:05:40.556Z,12.60
2018-01-10T14:08:08.922Z,13.50
2018-01-10T14:10:37.271Z,15.43
2018-01-10T14:13:06.411Z,12.57
2018-01-10T14:15:34.810Z,13.17
2018-01-10T14:18:04.930Z,12.60
2018-01-10T14:20:33.756Z,15.10
2018-01-10T14:23:02.176Z,12.20
2018-01-10T14:25:30.604Z,13.27
2018-01-10T14:27:59.840Z,13.23
2018-01-10T14:30:28.977Z,11.23
2018-01-10T14:32:57.443Z,13.13
2018-01-10T14:35:25.796Z,13.03
2018-01-10T14:37:54.921Z,12.13
2018-01-10T14:40:23.332Z,13.00
2018-01-10T14:42:51.768Z,12.83
2018-01-10T14:45:20.122Z,12.43
2018-01-10T14:47:49.290Z,12.53
2018-01-10T14:50:17.720Z,13.07
2018-01-10T14:52:46.052Z,14.40
2018-01-10T14:55:14.408Z,11.33
2018-01-10T14:57:42.721Z,12.20
2018-01-10T15:00:11.863Z,10.87
2018-01-10T15:02:40.246Z,11.57
2018-01-10T15:05:08.580Z,12.30
2018-01-10T15:07:36.907Z,11.90
2018-01-10T15:10:05.249Z,10.73
2018-01-10T15:12:34.355Z,13.47
2018-01-10T15:15:02.715Z,11.10
2018-01-10T15:17:31.047Z,10.93
2018-01-10T15:19:59.414Z,10.77
2018-01-10T15:22:27.788Z,12.00
2018-01-10T15:24:56.204Z,14.27
2018-01-10T15:27:24.579Z,12.27
2018-01-10T15:29:53.017Z,11.90
2018-01-10T15:32:21.336Z,10.00
2018-01-10T15:34:49.685Z,15.50
2018-01-10T15:37:18.059Z,10.60
2018-01-10T15:39:46.403Z,10.37
2018-01-10T15:42:15.531Z,11.17
2018-01-10T15:44:43.888Z,9.57
2018-01-10T15:47:12.833Z,10.40
2018-01-10T15:49:41.286Z,10.30
2018-01-10T15:52:09.683Z,9.77
2018-01-10T15:54:38.008Z,10.03
2018-01-10T15:57:06.431Z,10.00
2018-01-10T15:59:34.760Z,11.77
2018-01-10T16:02:03.204Z,11.13
2018-01-10T16:04:31.565Z,12.00
2018-01-10T16:07:00.000Z,11.90
2018-01-10T16:09:28.424Z,9.73
2018-01-10T16:11:56.792Z,11.90
2018-01-10T16:14:25.276Z,12.50
2018-01-10T16:16:53.623Z,10.33
2018-01-10T16:19:22.766Z,9.63
2018-01-10T16:21:51.119Z,12.33
2018-01-10T16:24:20.239Z,10.00
2018-01-10T16:26:48.587Z,12.33
2018-01-10T16:29:17.684Z,7.77
2018-01-10T16:31:46.824Z,11.33
2018-01-10T16:34:15.192Z,8.67
2018-01-10T16:36:43.531Z,13.40
2018-01-10T16:39:11.874Z,11.43
2018-01-10T16:41:40.238Z,11.90
2018-01-10T16:44:08.685Z,11.57
2018-01-10T16:46:37.917Z,8.03
2018-01-10T16:49:06.278Z,12.07
2018-01-10T16:51:34.617Z,10.47
2018-01-10T16:54:03.384Z,11.17
2018-01-10T16:56:31.715Z,8.60
2018-01-10T16:59:00.050Z,8.53
2018-01-10T17:01:28.502Z,9.93
2018-01-10T17:03:56.833Z,9.40
2018-01-10T17:06:25.957Z,11.83
2018-01-10T17:08:54.378Z,11.33
2018-01-10T17:11:22.950Z,14.50
2018-01-10T17:13:51.275Z,11.57
2018-01-10T17:16:20.397Z,11.47
2018-01-10T17:18:48.791Z,12.47
2018-01-10T17:21:17.139Z,9.67
2018-01-10T17:23:46.266Z,11.57
2018-01-10T17:26:14.610Z,11.97
2018-01-10T17:28:43.763Z,11.70
2018-01-10T17:31:12.680Z,11.97
2018-01-10T17:33:41.057Z,14.00
2018-01-10T17:36:09.490Z,12.83
2018-01-10T17:38:37.829Z,12.77
2018-01-10T17:41:06.165Z,14.43
2018-01-10T17:43:34.526Z,14.33
2018-01-10T17:46:03.110Z,13.30
2018-01-10T17:48:31.452Z,11.13
2018-01-10T17:50:59.817Z,12.40
2018-01-10T17:53:28.265Z,11.93
2018-01-10T17:55:56.588Z,13.20
2018-01-10T17:58:25.747Z,12.87
2018-01-10T18:00:54.106Z,12.73
2018-01-10T18:03:22.584Z,11.20
2018-01-10T18:05:50.935Z,10.23
2018-01-10T18:08:20.248Z,12.23
2018-01-10T18:10:48.623Z,11.80
2018-01-10T18:13:17.711Z,14.07
2018-01-10T18:15:46.832Z,13.23
2018-01-10T18:18:15.194Z,13.17
2018-01-10T18:20:43.549Z,14.53
2018-01-10T18:23:11.882Z,15.20
2018-01-10T18:25:40.248Z,13.87
2018-01-10T18:28:08.587Z,12.47
2018-01-10T18:30:37.013Z,12.20
2018-01-10T18:33:05.355Z,16.73
2018-01-10T18:35:34.456Z,16.00
2018-01-10T18:38:03.102Z,14.73
2018-01-10T18:40:31.421Z,13.27
2018-01-10T18:43:00.536Z,13.77
2018-01-10T18:45:28.905Z,12.97
2018-01-10T18:47:57.248Z,10.83
2018-01-10T18:50:25.590Z,12.33
2018-01-10T18:52:53.972Z,14.27
2018-01-10T18:55:22.312Z,15.23
2018-01-10T18:57:51.461Z,16.60
2018-01-10T19:00:20.062Z,32.43
2018-01-10T19:02:48.390Z,21.07
2018-01-10T19:05:16.753Z,15.80
2018-01-10T19:07:45.100Z,16.43
2018-01-10T19:10:13.464Z,16.43
2018-01-10T19:12:41.804Z,15.33
2018-01-10T19:15:10.140Z,19.10
2018-01-10T19:17:38.592Z,17.23
2018-01-10T19:20:06.924Z,75.70
2018-01-10T19:22:35.327Z,62.10
2018-01-10T19:25:03.716Z,22.73
2018-01-10T19:27:32.057Z,15.97
2018-01-10T19:30:01.163Z,22.27
2018-01-10T19:32:30.091Z,15.13
2018-01-10T19:34:58.567Z,17.80
2018-01-10T19:37:26.940Z,22.77
2018-01-10T19:39:55.289Z,15.97
2018-01-10T19:42:24.391Z,15.87
2018-01-10T19:44:52.734Z,15.10
2018-01-10T19:47:21.088Z,19.90
2018-01-10T19:49:49.418Z,16.23
2018-01-10T19:52:18.550Z,15.87
2018-01-10T19:54:47.414Z,16.40
2018-01-10T19:57:17.469Z,16.77
2018-01-10T19:59:45.819Z,15.57
2018-01-10T20:02:14.223Z,17.83
2018-01-10T20:04:42.584Z,15.63
2018-01-10T20:07:10.959Z,17.27
2018-01-10T20:09:39.334Z,19.27
2018-01-10T20:12:07.734Z,19.33
2018-01-10T20:14:36.133Z,15.53
2018-01-10T20:17:04.505Z,21.47
2018-01-10T20:19:32.920Z,22.77
2018-01-10T20:22:01.374Z,17.70
2018-01-10T20:24:29.722Z,17.03
2018-01-10T20:26:58.090Z,20.60
2018-01-10T20:29:26.420Z,17.20
2018-01-10T20:31:54.794Z,16.87
2018-01-10T20:34:23.240Z,18.47
2018-01-10T20:36:51.579Z,20.70
2018-01-10T20:39:20.709Z,20.70
2018-01-10T20:41:49.049Z,15.83
2018-01-10T20:44:17.477Z,19.67
2018-01-10T20:46:45.810Z,17.60
2018-01-10T20:49:14.918Z,20.47
2018-01-10T20:51:44.045Z,18.17
2018-01-10T20:54:12.382Z,19.13
2018-01-10T20:56:40.723Z,18.90
2018-01-10T20:59:09.103Z,15.87
2018-01-10T21:01:37.545Z,17.20
2018-01-10T21:04:06.212Z,18.43
2018-01-10T21:06:34.630Z,19.33
2018-01-10T21:09:02.971Z,19.27
2018-01-10T21:11:32.088Z,17.87
2018-01-10T21:14:00.436Z,23.50
2018-01-10T21:16:28.870Z,23.93
2018-01-10T21:18:57.258Z,19.67
2018-01-10T21:21:25.632Z,18.67
2018-01-10T21:23:54.194Z,17.43
2018-01-10T21:26:22.643Z,19.17
2018-01-10T21:28:51.139Z,18.50
2018-01-10T21:31:20.266Z,18.43
2018-01-10T21:33:48.612Z,20.23
2018-01-10T21:36:17.786Z,17.63
2018-01-10T21:38:46.145Z,16.53
2018-01-10T21:41:14.475Z,18.03
2018-01-10T21:43:43.739Z,18.43
2018-01-10T21:46:12.077Z,21.57
2018-01-10T21:48:40.432Z,26.67
2018-01-10T21:51:09.539Z,27.33
2018-01-10T21:53:37.987Z,21.90
2018-01-10T21:56:06.364Z,18.63
2018-01-10T21:58:34.684Z,22.07
2018-01-10T22:01:03.075Z,19.73
2018-01-10T22:03:31.451Z,17.10
2018-01-10T22:06:00.520Z,16.33
2018-01-10T22:08:29.615Z,18.73
2018-01-10T22:10:58.786Z,18.47
2018-01-10T22:13:27.136Z,18.43
2018-01-10T22:15:55.503Z,18.83
2018-01-10T22:18:24.350Z,23.30
2018-01-10T22:20:52.676Z,21.50
2018-01-10T22:23:21.021Z,23.50
2018-01-10T22:25:49.353Z,20.43
2018-01-10T22:28:17.714Z,20.47
2018-01-10T22:30:46.045Z,20.90
2018-01-10T22:33:14.392Z,20.70
2018-01-10T22:35:42.736Z,17.63
2018-01-10T22:38:11.140Z,19.27
2018-01-10T22:40:39.478Z,18.17
2018-01-10T22:43:07.882Z,18.23
2018-01-10T22:45:36.250Z,18.93
2018-01-10T22:48:04.599Z,21.90
2018-01-10T22:50:32.965Z,21.30
2018-01-10T22:53:01.309Z,22.47
2018-01-10T22:55:29.683Z,18.27
2018-01-10T22:57:58.145Z,16.87
2018-01-10T23:00:26.481Z,14.07
2018-01-10T23:02:54.917Z,16.03
2018-01-10T23:05:23.247Z,15.07
2018-01-10T23:07:52.383Z,14.20
2018-01-10T23:10:20.760Z,14.93
2018-01-10T23:12:49.087Z,12.63
2018-01-10T23:15:17.468Z,17.00
2018-01-10T23:17:45.809Z,13.60
2018-01-10T23:20:14.180Z,14.90
2018-01-10T23:22:42.522Z,16.23
2018-01-10T23:25:10.854Z,15.03
2018-01-10T23:27:39.203Z,16.33
2018-01-10T23:30:07.595Z,15.87
2018-01-10T23:32:35.969Z,14.10
2018-01-10T23:35:04.349Z,19.13
2018-01-10T23:37:32.719Z,15.97
2018-01-10T23:40:01.081Z,17.27
2018-01-10T23:42:30.182Z,18.63
2018-01-10T23:44:59.309Z,24.30
2018-01-10T23:47:27.660Z,19.87
2018-01-10T23:49:56.828Z,21.20
2018-01-10T23:52:25.164Z,22.33
2018-01-10T23:54:53.546Z,24.63
2018-01-10T23:57:21.901Z,22.77
2018-01-10T23:59:50.309Z,24.30
